Grant County, OR

5:33 PM PDT on October 23, 2017 (GMT -0700)
Grant County Regional

Weather History for KGCD - March, 2013

Change the Weather History Date:

Wednesday, March 20, 2013

  Actual Average (KBNO) Record (KBNO)
Temperature  
Mean Temperature 46 °F -  
Max Temperature 59 °F 51 °F 71 °F (1947)
Min Temperature 34 °F 26 °F 10 °F (1955)
Degree Days  
Heating Degree Days 18    
Moisture  
Dew Point 34 °F    
Average Humidity 64    
Maximum Humidity 94    
Minimum Humidity 42    
Precipitation  
Precipitation 0.06 in - - ()
Sea Level Pressure  
Sea Level Pressure 29.77 in    
Wind  
Wind Speed 13 mph (SW)    
Max Wind Speed 38 mph    
Max Gust Speed 52 mph    
Visibility 10 miles    
Events Rain    
Averages and records for this station are not official NWS values.
T = Trace of Precipitation, MM = Missing Value Source: NWS Daily Summary

Daily Weather History Graph

Daily Weather History Graph

Search for Another Location

Airport or City:

Trip Planner

Search our weather history database for the weather conditions in past years. The results will help you decide how hot, cold, wet, or windy it might be!

Date:

Astronomy

Mar. 20, 2013 Rise Set
Actual Time 6:58 AM PDT 7:08 PM PDT
Civil Twilight 6:29 AM PDT 7:37 PM PDT
Nautical Twilight 5:55 AM PDT 8:11 PM PDT
Astronomical Twilight 5:20 AM PDT 8:46 PM PDT
Moon 12:36 PM PDT (3/20) 2:54 AM PDT (3/20)
Length of Visible Light 13h 08m
Length of Day
12h 10m
First Quarter, 60% of the Moon is Illuminated
Mar 20
First Quarter
Mar 27
Full
Apr 2
Last Quarter
Apr 10
New
Apr 18
First Quarter

Hourly Weather History & Observations

Time (PDT) Temp. Windchill Dew Point Humidity Pressure Visibility Wind Dir Wind Speed Gust Speed Precip Events Conditions
12:15 AM 47.1 °F - 39.2 °F 74% 29.82 in 10.0 mi SE 6.9 mph 18.4 mph N/A   Overcast
12:35 AM 48.2 °F - 39.9 °F 73% 29.81 in 10.0 mi South 18.4 mph 23.0 mph N/A Rain Rain
12:55 AM 47.7 °F - 40.5 °F 76% 29.80 in 10.0 mi South 17.3 mph 25.3 mph 0.01 in Rain Light Rain
1:15 AM 47.8 °F - 40.8 °F 77% 29.80 in 10.0 mi South 18.4 mph - N/A   Light Drizzle
1:35 AM 48.2 °F - 40.5 °F 75% 29.79 in 10.0 mi South 15.0 mph 19.6 mph N/A   Overcast
1:55 AM 48.2 °F - 40.3 °F 74% 29.78 in 10.0 mi SSW 12.7 mph 18.4 mph N/A   Overcast
2:15 AM 48.4 °F - 40.3 °F 74% 29.79 in 10.0 mi South 9.2 mph 24.2 mph N/A   Drizzle
2:35 AM 48.9 °F - 39.9 °F 71% 29.78 in 10.0 mi South 3.5 mph - N/A   Overcast
2:55 AM 49.1 °F - 39.6 °F 70% 29.78 in 10.0 mi SSW 10.4 mph 17.3 mph N/A   Overcast
3:15 AM 48.2 °F - 39.9 °F 73% 29.77 in 10.0 mi South 9.2 mph - N/A   Overcast
3:35 AM 49.5 °F - 39.0 °F 67% 29.77 in 10.0 mi SSE 3.5 mph - N/A   Overcast
3:55 AM 48.9 °F - 39.4 °F 70% 29.76 in 10.0 mi WSW 3.5 mph - N/A   Overcast
4:15 AM 49.1 °F - 39.2 °F 69% 29.76 in 10.0 mi Calm Calm - N/A   Overcast
4:35 AM 49.1 °F - 38.8 °F 68% 29.76 in 10.0 mi SSW 8.1 mph - N/A   Overcast
4:55 AM 48.2 °F - 38.8 °F 70% 29.74 in 10.0 mi South 10.4 mph - N/A   Overcast
5:15 AM 49.1 °F - 38.3 °F 66% 29.75 in 10.0 mi South 10.4 mph - N/A   Overcast
5:35 AM 48.9 °F - 38.3 °F 67% 29.74 in 10.0 mi South 4.6 mph - N/A   Overcast
5:55 AM 49.1 °F - 37.9 °F 65% 29.74 in 10.0 mi ENE 4.6 mph - N/A   Overcast
6:15 AM 48.2 °F - 38.3 °F 69% 29.74 in 10.0 mi SSW 10.4 mph 24.2 mph N/A   Overcast
6:35 AM 48.2 °F - 38.5 °F 69% 29.74 in 10.0 mi SSW 10.4 mph 16.1 mph N/A   Overcast
6:55 AM 48.2 °F - 37.9 °F 68% 29.73 in 10.0 mi South 16.1 mph 21.9 mph N/A   Light Drizzle
7:15 AM 48.6 °F - 37.4 °F 65% 29.72 in 10.0 mi SSW 4.6 mph 16.1 mph N/A   Overcast
7:35 AM 48.7 °F - 37.4 °F 65% 29.73 in 10.0 mi Calm Calm - N/A   Overcast
7:55 AM 49.5 °F - 38.7 °F 66% 29.74 in 10.0 mi SSW 13.8 mph 18.4 mph N/A   Overcast
8:15 AM 49.8 °F - 38.3 °F 65% 29.73 in 10.0 mi South 16.1 mph 23.0 mph N/A   Overcast
8:55 AM 51.6 °F - 38.5 °F 61% 29.72 in 10.0 mi SSW 19.6 mph 28.8 mph N/A   Overcast
9:15 AM 51.1 °F - 37.4 °F 60% 29.70 in 10.0 mi South 25.3 mph 29.9 mph N/A   Overcast
9:35 AM 51.8 °F - 37.2 °F 58% 29.70 in 10.0 mi South 26.5 mph 36.8 mph N/A   Scattered Clouds
9:55 AM 52.7 °F - 36.9 °F 55% 29.70 in 10.0 mi South 16.1 mph 28.8 mph N/A   Scattered Clouds
10:15 AM 52.7 °F - 37.0 °F 55% 29.70 in 10.0 mi SSW 18.4 mph 21.9 mph N/A   Overcast
10:35 AM 51.8 °F - 36.5 °F 56% 29.70 in 10.0 mi SSW 9.2 mph - N/A   Overcast
10:55 AM 52.9 °F - 36.0 °F 53% 29.69 in 10.0 mi SSW 16.1 mph 25.3 mph N/A   Overcast
11:15 AM 55.0 °F - 36.5 °F 50% 29.68 in 10.0 mi South 17.3 mph 23.0 mph N/A   Overcast
11:35 AM 53.6 °F - 36.1 °F 52% 29.68 in 10.0 mi South 12.7 mph 27.6 mph N/A   Overcast
11:55 AM 54.9 °F - 36.0 °F 49% 29.66 in 10.0 mi South 19.6 mph 27.6 mph N/A   Overcast
12:15 PM 54.9 °F - 35.8 °F 49% 29.65 in 10.0 mi South 17.3 mph 25.3 mph N/A Rain Light Rain
12:35 PM 59.4 °F - 36.3 °F 42% 29.63 in 10.0 mi SSW 24.2 mph 32.2 mph N/A   Mostly Cloudy
12:55 PM 53.8 °F - 39.7 °F 59% 29.64 in 7.0 mi SSW 18.4 mph 27.6 mph N/A Rain Rain
1:15 PM 52.2 °F - 36.9 °F 56% 29.65 in 7.0 mi SW 38.0 mph 51.8 mph N/A Rain Rain
1:35 PM 50.2 °F - 43.2 °F 77% 29.67 in 10.0 mi WSW 18.4 mph 32.2 mph N/A   Mostly Cloudy
1:55 PM 54.1 °F - 41.2 °F 62% 29.65 in 10.0 mi WSW 21.9 mph 28.8 mph N/A   Scattered Clouds
2:15 PM 40.1 °F 29.0 °F 37.9 °F 92% 29.71 in 4.0 mi West 27.6 mph 35.7 mph 0.04 in Rain Rain
2:35 PM 40.1 °F 32.4 °F 38.5 °F 94% 29.73 in 7.0 mi West 13.8 mph 25.3 mph 0.04 in Rain Light Rain
2:55 PM 40.6 °F 33.0 °F 38.8 °F 93% 29.73 in 7.0 mi SW 13.8 mph - 0.05 in Rain Light Rain
3:15 PM 43.0 °F 37.2 °F 39.7 °F 88% 29.72 in 10.0 mi SW 10.4 mph - N/A   Overcast
3:35 PM 43.9 °F 38.8 °F 38.8 °F 82% 29.73 in 10.0 mi West 9.2 mph - N/A   Mostly Cloudy
3:55 PM 44.6 °F 40.7 °F 38.8 °F 80% 29.73 in 10.0 mi West 6.9 mph - N/A   Overcast
4:15 PM 44.6 °F 39.7 °F 38.1 °F 78% 29.73 in 10.0 mi West 9.2 mph - N/A   Overcast
4:35 PM 46.4 °F 40.7 °F 37.4 °F 71% 29.73 in 10.0 mi West 12.7 mph - N/A   Overcast
4:55 PM 47.5 °F - 35.1 °F 62% 29.73 in 10.0 mi West 20.7 mph 27.6 mph N/A   Mostly Cloudy
5:15 PM 45.5 °F 36.5 °F 30.9 °F 57% 29.74 in 10.0 mi West 26.5 mph 33.4 mph N/A   Mostly Cloudy
5:35 PM 45.5 °F 36.5 °F 31.1 °F 57% 29.75 in 10.0 mi West 26.5 mph 33.4 mph N/A   Mostly Cloudy
5:55 PM 45.1 °F 36.2 °F 28.0 °F 51% 29.76 in 10.0 mi West 25.3 mph 32.2 mph N/A   Mostly Cloudy
6:15 PM 43.3 °F 35.0 °F 28.8 °F 56% 29.78 in 10.0 mi West 19.6 mph 34.5 mph N/A   Mostly Cloudy
6:35 PM 43.7 °F 35.4 °F 25.9 °F 50% 29.79 in 10.0 mi West 19.6 mph 34.5 mph N/A   Overcast
6:55 PM 42.3 °F 34.1 °F 27.0 °F 55% 29.81 in 10.0 mi West 17.3 mph 26.5 mph N/A   Mostly Cloudy
7:15 PM 41.9 °F 33.1 °F 25.3 °F 52% 29.82 in 10.0 mi WNW 19.6 mph 28.8 mph N/A   Overcast
7:35 PM 40.5 °F 31.8 °F 25.9 °F 56% 29.83 in 10.0 mi WNW 17.3 mph 24.2 mph N/A   Overcast
7:55 PM 40.1 °F 31.3 °F 24.8 °F 54% 29.85 in 10.0 mi WNW 17.3 mph 27.6 mph N/A   Overcast
8:15 PM 39.4 °F 29.0 °F 22.8 °F 52% 29.86 in 10.0 mi West 23.0 mph 31.1 mph N/A   Overcast
8:35 PM 38.3 °F 29.0 °F 23.2 °F 55% 29.88 in 10.0 mi West 17.3 mph 26.5 mph N/A   Mostly Cloudy
8:55 PM 37.9 °F 28.5 °F 23.4 °F 56% 29.89 in 10.0 mi West 17.3 mph 24.2 mph N/A   Overcast
9:15 PM 37.9 °F 28.5 °F 21.9 °F 53% 29.90 in 10.0 mi West 17.3 mph 26.5 mph N/A   Overcast
9:35 PM 36.9 °F 27.1 °F 21.9 °F 55% 29.91 in 10.0 mi West 17.3 mph 24.2 mph N/A   Mostly Cloudy
9:55 PM 35.6 °F 26.2 °F 21.4 °F 56% 29.92 in 10.0 mi West 15.0 mph 19.6 mph N/A   Scattered Clouds
10:15 PM 34.5 °F 25.7 °F 21.7 °F 60% 29.93 in 10.0 mi West 12.7 mph - N/A   Clear
10:35 PM 35.2 °F 24.4 °F 21.7 °F 58% 29.94 in 10.0 mi West 19.6 mph 24.2 mph N/A   Mostly Cloudy
11:15 PM 34.3 °F 23.9 °F 21.6 °F 60% 29.95 in 10.0 mi West 17.3 mph 21.9 mph N/A   Scattered Clouds
11:35 PM 34.3 °F 25.0 °F 22.5 °F 62% 29.96 in 10.0 mi West 13.8 mph - N/A   Mostly Cloudy
11:55 PM 34.2 °F 26.2 °F 23.0 °F 64% 29.96 in 10.0 mi West 10.4 mph - N/A   Overcast